createdAt,value
2023-03-23T00:01:21.227Z,97760.09
2023-03-23T00:03:51.317Z,97758.59
2023-03-23T00:06:22.608Z,97761.41
2023-03-23T00:08:58.220Z,97772.41
2023-03-23T00:11:30.506Z,97767.44
2023-03-23T00:14:02.354Z,97768.44
2023-03-23T00:16:38.691Z,97763.81
2023-03-23T00:19:08.034Z,97765.81
2023-03-23T00:21:38.089Z,97746.59
2023-03-23T00:24:14.138Z,97753.91
2023-03-23T00:26:48.294Z,97742.63
2023-03-23T00:29:22.474Z,97766.88
2023-03-23T00:31:50.275Z,97770.50
2023-03-23T00:34:23.324Z,97763.88
2023-03-23T00:36:54.694Z,97764.88
2023-03-23T00:39:21.603Z,97762.56
2023-03-23T00:41:49.100Z,97742.69
2023-03-23T00:44:22.022Z,97742.88
2023-03-23T00:46:50.934Z,97752.19
2023-03-23T00:49:20.373Z,97750.66
2023-03-23T00:51:47.628Z,97753.50
2023-03-23T00:54:14.678Z,97770.25
2023-03-23T00:56:41.779Z,97765.28
2023-03-23T00:59:09.080Z,97763.97
2023-03-23T01:01:36.893Z,97764.97
2023-03-23T01:04:07.854Z,97760.66
2023-03-23T01:06:40.229Z,97771.25
2023-03-23T01:09:10.369Z,97775.25
2023-03-23T01:11:37.350Z,97781.53
2023-03-23T01:14:04.628Z,97780.06
2023-03-23T01:16:31.579Z,97785.53
2023-03-23T01:18:58.575Z,97781.22
2023-03-23T01:21:26.384Z,97780.56
2023-03-23T01:23:53.430Z,97791.50
2023-03-23T01:26:23.611Z,97793.34
2023-03-23T01:28:51.136Z,97790.88
2023-03-23T01:31:21.260Z,97792.00
2023-03-23T01:33:48.743Z,97792.16
2023-03-23T01:36:18.801Z,97793.16
2023-03-23T01:38:47.723Z,97788.84
2023-03-23T01:41:15.960Z,97792.66
2023-03-23T01:44:07.473Z,97794.47
2023-03-23T01:46:35.280Z,97798.78
2023-03-23T01:49:10.140Z,97796.28
2023-03-23T01:51:42.533Z,97804.44
2023-03-23T01:54:15.305Z,97802.44
2023-03-23T01:56:51.920Z,97797.31
2023-03-23T01:59:19.300Z,97803.44
2023-03-23T02:01:47.512Z,97801.44
2023-03-23T02:04:17.827Z,97803.44
2023-03-23T02:06:45.988Z,97803.25
2023-03-23T02:09:20.489Z,97808.75
2023-03-23T02:11:55.274Z,97803.59
2023-03-23T02:14:24.863Z,97813.38
2023-03-23T02:17:18.426Z,97818.00
2023-03-23T02:19:57.702Z,97818.00
2023-03-23T02:22:43.835Z,97822.31
2023-03-23T02:25:24.457Z,97824.16
2023-03-23T02:28:22.392Z,97829.44
2023-03-23T02:31:23.499Z,97833.25
2023-03-23T02:34:06.255Z,97829.59
2023-03-23T02:37:04.810Z,97834.09
2023-03-23T02:39:39.123Z,97838.56
2023-03-23T02:42:13.451Z,97836.75
2023-03-23T02:44:45.145Z,97841.03
2023-03-23T02:47:20.468Z,97825.31
2023-03-23T02:49:52.485Z,97827.78
2023-03-23T02:52:26.012Z,97837.53
2023-03-23T02:54:54.950Z,97835.91
2023-03-23T02:57:24.773Z,97830.59
2023-03-23T03:00:12.422Z,97835.91
2023-03-23T03:02:42.708Z,97837.72
2023-03-23T03:05:31.654Z,97844.84
2023-03-23T03:08:25.648Z,97844.84
2023-03-23T03:10:56.064Z,97852.78
2023-03-23T03:13:35.443Z,97852.78
2023-03-23T03:16:08.375Z,97848.31
2023-03-23T03:18:50.132Z,97849.16
2023-03-23T03:21:21.491Z,97855.63
2023-03-23T03:23:50.792Z,97859.91
2023-03-23T03:26:18.547Z,97865.06
2023-03-23T03:28:49.158Z,97866.69
2023-03-23T03:31:20.001Z,97870.19
2023-03-23T03:33:48.231Z,97872.84
2023-03-23T03:36:21.794Z,97863.91
2023-03-23T03:38:51.710Z,97872.50
2023-03-23T03:41:19.908Z,97872.69
2023-03-23T03:43:47.170Z,97872.00
2023-03-23T03:46:14.322Z,97877.16
2023-03-23T03:48:41.480Z,97878.00
2023-03-23T03:51:10.054Z,97883.94
2023-03-23T03:53:37.326Z,97887.59
2023-03-23T03:56:05.907Z,97886.75
2023-03-23T03:58:32.895Z,97892.03
2023-03-23T04:01:01.506Z,97887.59
2023-03-23T04:03:28.680Z,97899.84
2023-03-23T04:05:58.448Z,97898.19
2023-03-23T04:08:28.119Z,97896.53
2023-03-23T04:10:55.162Z,97906.31
2023-03-23T04:13:22.797Z,97918.72
2023-03-23T04:16:07.193Z,97923.38
2023-03-23T04:18:37.285Z,97925.00
2023-03-23T04:21:05.337Z,97925.69
2023-03-23T04:23:35.058Z,97927.34
2023-03-23T04:26:02.771Z,97933.47
2023-03-23T04:28:30.758Z,97938.97
2023-03-23T04:30:57.668Z,97943.25
2023-03-23T04:33:26.451Z,97942.41
2023-03-23T04:36:17.397Z,97941.59
2023-03-23T04:38:44.370Z,97956.69
2023-03-23T04:41:11.381Z,97961.97
2023-03-23T04:43:42.929Z,97965.28
2023-03-23T04:46:10.224Z,97970.28
2023-03-23T04:48:37.434Z,97972.09
2023-03-23T04:51:05.361Z,97976.56
2023-03-23T04:53:33.365Z,97984.81
2023-03-23T04:56:02.469Z,97984.69
2023-03-23T04:58:30.397Z,97987.34
2023-03-23T05:00:57.421Z,98002.25
2023-03-23T05:03:24.428Z,97988.16
2023-03-23T05:05:54.732Z,97996.94
2023-03-23T05:08:23.342Z,97997.94
2023-03-23T05:10:55.882Z,98000.59
2023-03-23T05:13:23.431Z,98006.88
2023-03-23T05:15:50.587Z,98011.19
2023-03-23T05:18:18.052Z,98018.16
2023-03-23T05:20:47.566Z,98017.31
2023-03-23T05:23:14.710Z,98025.94
2023-03-23T05:25:42.801Z,98018.97
2023-03-23T05:28:12.057Z,98012.84
2023-03-23T05:30:40.152Z,98014.69
2023-03-23T05:33:07.732Z,98024.44
2023-03-23T05:35:34.850Z,98016.31
2023-03-23T05:38:03.288Z,98021.47
2023-03-23T05:40:31.404Z,98015.50
2023-03-23T05:43:00.257Z,98031.41
2023-03-23T05:45:27.701Z,98025.28
2023-03-23T05:47:54.637Z,98028.75
2023-03-23T05:50:21.625Z,98041.00
2023-03-23T05:52:48.650Z,98045.66
2023-03-23T05:55:16.479Z,98042.16
2023-03-23T05:57:43.454Z,98039.69
2023-03-23T06:00:15.571Z,98039.69
2023-03-23T06:02:46.962Z,98036.03
2023-03-23T06:05:14.979Z,98039.53
2023-03-23T06:07:42.138Z,98043.72
2023-03-23T06:10:10.476Z,98034.78
2023-03-23T06:12:38.922Z,98049.56
2023-03-23T06:15:07.983Z,98041.94
2023-03-23T06:17:36.248Z,98045.91
2023-03-23T06:20:11.529Z,98047.41
2023-03-23T06:22:39.570Z,98039.28
2023-03-23T06:25:07.921Z,98041.44
2023-03-23T06:27:34.969Z,98048.09
2023-03-23T06:30:02.861Z,98052.91
2023-03-23T06:32:32.034Z,98048.09
2023-03-23T06:34:59.193Z,98044.44
2023-03-23T06:37:26.807Z,98047.75
2023-03-23T06:39:53.811Z,98057.06
2023-03-23T06:42:21.057Z,98050.78
2023-03-23T06:44:48.408Z,98052.09
2023-03-23T06:47:15.557Z,98043.78
2023-03-23T06:49:42.864Z,98031.38
2023-03-23T06:52:09.831Z,98045.78
2023-03-23T06:54:37.456Z,98049.25
2023-03-23T06:57:04.678Z,98061.88
2023-03-23T06:59:32.251Z,98060.34
2023-03-23T07:01:59.315Z,98066.03
2023-03-23T07:04:26.219Z,98067.91
2023-03-23T07:06:53.211Z,98069.59
2023-03-23T07:09:21.320Z,98068.28
2023-03-23T07:11:49.419Z,98067.97
2023-03-23T07:14:16.496Z,98072.00
2023-03-23T07:16:43.740Z,98068.66
2023-03-23T07:19:11.093Z,98075.97
2023-03-23T07:21:38.354Z,98079.94
2023-03-23T07:24:05.621Z,98080.44
2023-03-23T07:26:33.221Z,98076.16
2023-03-23T07:29:00.559Z,98079.78
2023-03-23T07:31:27.764Z,98075.47
2023-03-23T07:33:54.973Z,98082.78
2023-03-23T07:36:22.176Z,98079.59
2023-03-23T07:38:49.637Z,98073.97
2023-03-23T07:41:16.738Z,98085.94
2023-03-23T07:43:43.797Z,98085.44
2023-03-23T07:46:10.959Z,98073.31
2023-03-23T07:48:39.150Z,98083.59
2023-03-23T07:51:08.506Z,98078.78
2023-03-23T07:53:35.499Z,98084.44
2023-03-23T07:56:04.762Z,98070.16
2023-03-23T07:58:31.840Z,98074.50
2023-03-23T08:00:59.257Z,98071.53
2023-03-23T08:03:26.196Z,98073.81
2023-03-23T08:05:53.321Z,98075.16
2023-03-23T08:08:20.397Z,98066.66
2023-03-23T08:10:47.931Z,98082.94
2023-03-23T08:13:15.945Z,98078.94
2023-03-23T08:15:43.298Z,98078.94
2023-03-23T08:18:10.708Z,98086.91
2023-03-23T08:20:38.120Z,98081.28
2023-03-23T08:23:05.670Z,98075.97
2023-03-23T08:25:32.812Z,98089.72
2023-03-23T08:28:02.793Z,98099.16
2023-03-23T08:30:31.443Z,98098.69
2023-03-23T08:33:00.327Z,98098.34
2023-03-23T08:35:27.426Z,98107.28
2023-03-23T08:37:55.843Z,98103.16
2023-03-23T08:40:24.337Z,98105.13
2023-03-23T08:43:00.841Z,98104.81
2023-03-23T08:45:29.266Z,98102.47
2023-03-23T08:47:57.537Z,98110.91
2023-03-23T08:50:28.416Z,98120.25
2023-03-23T08:52:56.205Z,98116.81
2023-03-23T08:55:24.002Z,98110.50
2023-03-23T08:57:51.224Z,98109.66
2023-03-23T09:00:21.416Z,98114.75
2023-03-23T09:02:52.004Z,98109.44
2023-03-23T09:05:22.838Z,98115.25
2023-03-23T09:07:54.188Z,98108.09
2023-03-23T09:10:22.139Z,98113.56
2023-03-23T09:12:49.902Z,98113.22
2023-03-23T09:15:23.961Z,98118.00
2023-03-23T09:18:00.566Z,98112.53
2023-03-23T09:20:29.887Z,98108.06
2023-03-23T09:22:59.167Z,98116.16
2023-03-23T09:25:28.625Z,98115.19
2023-03-23T09:27:59.261Z,98122.28
2023-03-23T09:30:33.351Z,98133.91
2023-03-23T09:33:05.505Z,98133.56
2023-03-23T09:35:35.655Z,98139.22
2023-03-23T09:38:03.788Z,98132.25
2023-03-23T09:40:50.223Z,98129.25
2023-03-23T09:43:49.548Z,98131.03
2023-03-23T09:46:19.567Z,98132.19
2023-03-23T09:48:59.363Z,98128.34
2023-03-23T09:51:52.538Z,98132.47
2023-03-23T09:54:26.757Z,98131.94
2023-03-23T09:56:55.940Z,98125.63
2023-03-23T09:59:45.264Z,98133.63
2023-03-23T10:02:21.068Z,98136.63
2023-03-23T10:04:56.271Z,98141.47
2023-03-23T10:07:27.142Z,98141.78
2023-03-23T10:09:58.509Z,98125.38
2023-03-23T10:13:01.403Z,98140.50
2023-03-23T10:15:32.523Z,98146.16
2023-03-23T10:18:02.137Z,98155.81
2023-03-23T10:20:58.783Z,98154.47
2023-03-23T10:23:59.909Z,98152.66
2023-03-23T10:26:51.679Z,98149.81
2023-03-23T10:29:34.336Z,98160.78
2023-03-23T10:32:26.895Z,98160.00
2023-03-23T10:34:59.521Z,98159.16
2023-03-23T10:37:39.244Z,98154.16
2023-03-23T10:40:18.663Z,98152.78
2023-03-23T10:42:49.964Z,98156.13
2023-03-23T10:45:17.714Z,98158.16
2023-03-23T10:47:51.162Z,98151.53
2023-03-23T10:50:30.269Z,98161.97
2023-03-23T10:53:00.561Z,98161.81
2023-03-23T10:55:41.719Z,98160.78
2023-03-23T10:58:11.442Z,98165.09
2023-03-23T11:00:45.998Z,98155.09
2023-03-23T11:03:17.392Z,98152.63
2023-03-23T11:05:55.250Z,98161.06
2023-03-23T11:08:32.260Z,98172.41
2023-03-23T11:11:11.284Z,98156.25
2023-03-23T11:13:47.128Z,98159.44
2023-03-23T11:16:48.178Z,98161.25
2023-03-23T11:19:27.668Z,98159.44
2023-03-23T11:22:01.551Z,98157.06
2023-03-23T11:24:29.365Z,98158.75
2023-03-23T11:26:59.735Z,98151.56
2023-03-23T11:29:30.035Z,98161.22
2023-03-23T11:32:09.662Z,98156.53
2023-03-23T11:34:43.813Z,98162.56
2023-03-23T11:37:17.318Z,98159.22
2023-03-23T11:40:16.157Z,98166.19
2023-03-23T11:42:48.113Z,98166.00
2023-03-23T11:45:39.450Z,98154.38
2023-03-23T11:48:44.806Z,98170.41
2023-03-23T11:51:19.232Z,98166.13
2023-03-23T11:53:49.661Z,98173.09
2023-03-23T11:56:28.334Z,98173.59
2023-03-23T11:58:57.552Z,98174.06
2023-03-23T12:01:37.793Z,98171.06
2023-03-23T12:04:14.480Z,98180.03
2023-03-23T12:07:12.538Z,98178.84
2023-03-23T12:10:10.125Z,98184.97
2023-03-23T12:13:04.856Z,98170.88
2023-03-23T12:15:44.393Z,98172.69
2023-03-23T12:18:14.662Z,98175.31
2023-03-23T12:20:55.421Z,98189.63
2023-03-23T12:23:33.706Z,98187.41
2023-03-23T12:26:09.526Z,98187.09
2023-03-23T12:28:51.760Z,98186.44
2023-03-23T12:31:37.948Z,98185.78
2023-03-23T12:34:23.795Z,98189.28
2023-03-23T12:36:53.872Z,98193.56
2023-03-23T12:39:33.429Z,98183.97
2023-03-23T12:42:09.758Z,98183.44
2023-03-23T12:44:44.660Z,98179.41
2023-03-23T12:47:30.204Z,98184.94
2023-03-23T12:50:01.275Z,98184.63
2023-03-23T12:52:40.906Z,98193.28
2023-03-23T12:55:48.433Z,98184.03
2023-03-23T12:58:20.610Z,98176.91
2023-03-23T13:00:53.885Z,98178.88
2023-03-23T13:03:40.195Z,98185.53
2023-03-23T13:06:21.344Z,98181.72
2023-03-23T13:09:29.080Z,98180.88
2023-03-23T13:11:59.535Z,98179.72
2023-03-23T13:14:47.950Z,98192.53
2023-03-23T13:17:47.206Z,98184.88
2023-03-23T13:20:42.652Z,98185.88
2023-03-23T13:23:13.216Z,98189.34
2023-03-23T13:25:45.177Z,98187.66
2023-03-23T13:28:19.014Z,98198.13
2023-03-23T13:30:56.408Z,98195.44
2023-03-23T13:33:24.315Z,98191.94
2023-03-23T13:35:54.587Z,98186.78
2023-03-23T13:38:32.508Z,98182.22
2023-03-23T13:41:07.395Z,98181.22
2023-03-23T13:43:37.499Z,98170.84
2023-03-23T13:46:12.407Z,98179.31
2023-03-23T13:49:17.660Z,98178.13
2023-03-23T13:51:45.204Z,98180.31
2023-03-23T13:54:24.499Z,98173.63
2023-03-23T13:57:04.474Z,98167.94
2023-03-23T13:59:49.936Z,98176.88
2023-03-23T14:02:39.176Z,98176.50
2023-03-23T14:05:19.253Z,98178.13
2023-03-23T14:07:57.000Z,98172.94
2023-03-23T14:10:24.981Z,98169.38
2023-03-23T14:12:55.244Z,98173.50
2023-03-23T14:15:22.386Z,98168.53
2023-03-23T14:17:52.296Z,98176.91
2023-03-23T14:20:31.507Z,98181.34
2023-03-23T14:22:58.511Z,98178.50
2023-03-23T14:25:30.665Z,98180.88
2023-03-23T14:27:58.454Z,98178.25
2023-03-23T14:30:28.466Z,98170.00
2023-03-23T14:33:06.890Z,98169.28
2023-03-23T14:35:40.188Z,98174.91
2023-03-23T14:38:17.666Z,98160.84
2023-03-23T14:40:45.413Z,98162.78
2023-03-23T14:43:17.250Z,98164.91
2023-03-23T14:45:44.935Z,98153.19
2023-03-23T14:48:16.709Z,98152.91
2023-03-23T14:50:52.948Z,98144.38
2023-03-23T14:53:24.770Z,98153.09
2023-03-23T14:55:54.534Z,98148.22
2023-03-23T14:58:24.215Z,98154.81
2023-03-23T15:00:57.828Z,98149.94
2023-03-23T15:03:25.061Z,98142.59
2023-03-23T15:05:56.725Z,98142.22
2023-03-23T15:08:35.834Z,98132.22
2023-03-23T15:11:14.880Z,98130.34
2023-03-23T15:13:47.106Z,98125.84
2023-03-23T15:16:22.160Z,98127.50
2023-03-23T15:18:55.212Z,98131.63
2023-03-23T15:21:30.430Z,98120.75
2023-03-23T15:23:58.970Z,98125.72
2023-03-23T15:26:28.561Z,98122.69
2023-03-23T15:29:17.842Z,98125.72
2023-03-23T15:32:02.418Z,98124.72
2023-03-23T15:34:45.038Z,98127.56
2023-03-23T15:37:31.273Z,98126.03
2023-03-23T15:40:00.524Z,98120.13
2023-03-23T15:42:34.004Z,98115.09
2023-03-23T15:45:09.855Z,98116.47
2023-03-23T15:47:48.382Z,98120.06
2023-03-23T15:50:18.896Z,98117.41
2023-03-23T15:52:47.803Z,98117.41
2023-03-23T15:55:24.697Z,98120.25
2023-03-23T15:57:53.060Z,98124.41
2023-03-23T16:00:23.205Z,98125.59
2023-03-23T16:02:55.919Z,98129.16
2023-03-23T16:05:23.409Z,98125.88
2023-03-23T16:07:51.996Z,98129.81
2023-03-23T16:10:22.048Z,98120.03
2023-03-23T16:12:49.305Z,98123.53
2023-03-23T16:15:17.006Z,98112.03
2023-03-23T16:17:44.670Z,98111.84
2023-03-23T16:20:20.942Z,98115.91
2023-03-23T16:22:49.189Z,98110.38
2023-03-23T16:25:17.478Z,98104.69
2023-03-23T16:30:20.435Z,98112.97
2023-03-23T16:32:47.994Z,98106.34
2023-03-23T16:35:16.140Z,98108.81
2023-03-23T16:38:06.860Z,98105.19
2023-03-23T16:40:35.181Z,98102.19
2023-03-23T16:43:02.259Z,98103.84
2023-03-23T16:45:44.157Z,98112.88
2023-03-23T16:48:12.846Z,98112.50
2023-03-23T16:50:40.536Z,98106.34
2023-03-23T16:53:09.096Z,98102.56
2023-03-23T16:55:37.594Z,98110.00
2023-03-23T16:58:16.299Z,98099.00
2023-03-23T17:00:45.661Z,98094.38
2023-03-23T17:03:13.856Z,98109.63
2023-03-23T17:05:41.323Z,98097.09
2023-03-23T17:08:08.618Z,98089.78
2023-03-23T17:10:38.976Z,98098.41
2023-03-23T17:13:06.657Z,98100.88
2023-03-23T17:15:36.656Z,98094.72
2023-03-23T17:18:04.150Z,98101.06
2023-03-23T17:20:35.089Z,98092.78
2023-03-23T17:23:02.859Z,98102.78
2023-03-23T17:25:33.245Z,98095.00
2023-03-23T17:28:05.579Z,98102.78
2023-03-23T17:30:33.383Z,98095.19
2023-03-23T17:33:00.564Z,98097.00
2023-03-23T17:35:27.875Z,98093.22
2023-03-23T17:37:55.667Z,98098.56
2023-03-23T17:40:22.877Z,98101.22
2023-03-23T17:42:49.998Z,98092.59
2023-03-23T17:45:17.382Z,98095.63
2023-03-23T17:47:44.549Z,98095.63
2023-03-23T17:50:12.672Z,98094.59
2023-03-23T17:52:40.918Z,98091.63
2023-03-23T17:55:08.818Z,98088.97
2023-03-23T17:57:36.008Z,98084.00
2023-03-23T18:00:05.387Z,98079.06
2023-03-23T18:02:32.579Z,98089.72
2023-03-23T18:05:00.219Z,98096.41
2023-03-23T18:07:27.847Z,98088.41
2023-03-23T18:10:01.359Z,98089.41
2023-03-23T18:12:28.903Z,98089.59
2023-03-23T18:14:59.867Z,98095.28
2023-03-23T18:17:27.962Z,98094.97
2023-03-23T18:19:55.926Z,98101.16
2023-03-23T18:22:23.325Z,98095.44
2023-03-23T18:24:50.588Z,98095.28
2023-03-23T18:27:17.949Z,98095.56
2023-03-23T18:29:44.950Z,98093.88
2023-03-23T18:32:12.149Z,98094.91
2023-03-23T18:34:42.038Z,98092.41
2023-03-23T18:37:09.535Z,98097.09
2023-03-23T18:39:38.522Z,98095.28
2023-03-23T18:42:06.749Z,98093.41
2023-03-23T18:44:34.362Z,98095.28
2023-03-23T18:47:01.691Z,98097.75
2023-03-23T18:49:30.452Z,98089.59
2023-03-23T18:51:57.602Z,98097.38
2023-03-23T18:54:26.238Z,98096.66
2023-03-23T18:56:53.638Z,98103.50
2023-03-23T18:59:24.485Z,98095.31
2023-03-23T19:01:52.373Z,98095.16
2023-03-23T19:04:23.088Z,98096.88
2023-03-23T19:06:50.679Z,98095.13
2023-03-23T19:09:19.294Z,98096.09
2023-03-23T19:11:47.747Z,98095.72
2023-03-23T19:14:15.813Z,98096.22
2023-03-23T19:16:43.159Z,98094.31
2023-03-23T19:19:10.899Z,98100.13
2023-03-23T19:21:40.368Z,98098.22
2023-03-23T19:24:08.873Z,98102.38
2023-03-23T19:26:41.917Z,98104.47
2023-03-23T19:29:26.750Z,98097.81
2023-03-23T19:31:57.177Z,98093.44
2023-03-23T19:34:26.275Z,98104.28
2023-03-23T19:37:03.103Z,98092.81
2023-03-23T19:39:34.592Z,98095.75
2023-03-23T19:42:04.421Z,98095.22
2023-03-23T19:44:32.628Z,98100.38
2023-03-23T19:47:00.023Z,98094.84
2023-03-23T19:49:27.928Z,98096.31
2023-03-23T19:52:08.961Z,98104.13
2023-03-23T19:54:39.605Z,98101.28
2023-03-23T19:57:07.871Z,98093.94
2023-03-23T19:59:35.679Z,98096.59
2023-03-23T20:02:04.206Z,98093.78
2023-03-23T20:04:31.569Z,98095.78
2023-03-23T20:07:00.035Z,98081.66
2023-03-23T20:09:27.581Z,98086.97
2023-03-23T20:11:54.785Z,98083.84
2023-03-23T20:14:22.046Z,98078.50
2023-03-23T20:16:49.229Z,98074.19
2023-03-23T20:19:16.822Z,98076.47
2023-03-23T20:21:45.664Z,98073.47
2023-03-23T20:24:13.638Z,98068.69
2023-03-23T20:26:43.956Z,98072.38
2023-03-23T20:29:11.608Z,98074.97
2023-03-23T20:31:43.257Z,98066.78
2023-03-23T20:34:14.512Z,98070.94
2023-03-23T20:36:46.681Z,98072.84
2023-03-23T20:39:21.826Z,98061.09
2023-03-23T20:41:54.904Z,98070.09
2023-03-23T20:44:25.673Z,98060.25
2023-03-23T20:46:54.408Z,98064.41
2023-03-23T20:49:22.438Z,98066.50
2023-03-23T20:51:52.455Z,98059.28
2023-03-23T20:54:22.516Z,98056.03
2023-03-23T20:56:50.183Z,98053.84
2023-03-23T20:59:18.169Z,98048.97
2023-03-23T21:01:47.269Z,98058.06
2023-03-23T21:04:25.013Z,98052.53
2023-03-23T21:06:52.681Z,98046.81
2023-03-23T21:09:22.042Z,98050.50
2023-03-23T21:11:50.134Z,98049.28
2023-03-23T21:14:18.297Z,98048.09
2023-03-23T21:16:46.966Z,98043.59
2023-03-23T21:19:14.908Z,98046.91
2023-03-23T21:21:55.947Z,98042.59
2023-03-23T21:24:29.280Z,98046.09
2023-03-23T21:27:00.778Z,98045.25
2023-03-23T21:29:28.653Z,98045.25
2023-03-23T21:34:28.367Z,98044.88
2023-03-23T21:36:56.045Z,98042.00
2023-03-23T21:39:23.639Z,98040.38
2023-03-23T21:41:51.972Z,98038.50
2023-03-23T21:44:20.705Z,98039.16
2023-03-23T21:46:48.735Z,98030.63
2023-03-23T21:49:18.840Z,98029.56
2023-03-23T21:51:49.421Z,98023.75
2023-03-23T21:54:16.907Z,98019.41
2023-03-23T21:56:44.238Z,98022.47
2023-03-23T21:59:11.653Z,98015.50
2023-03-23T22:01:40.702Z,98019.16
2023-03-23T22:04:09.239Z,98010.53
2023-03-23T22:06:36.469Z,98016.22
2023-03-23T22:09:05.881Z,98013.28
2023-03-23T22:11:33.615Z,98015.66
2023-03-23T22:14:01.371Z,98012.63
2023-03-23T22:16:28.908Z,98009.44
2023-03-23T22:18:59.588Z,98012.75
2023-03-23T22:21:28.789Z,98005.56
2023-03-23T22:23:58.314Z,98001.16
2023-03-23T22:26:27.739Z,97997.50
2023-03-23T22:28:55.933Z,97990.13
2023-03-23T22:31:28.985Z,97993.00
2023-03-23T22:33:57.950Z,97984.34
2023-03-23T22:36:27.013Z,97979.41
2023-03-23T22:38:55.926Z,97975.25
2023-03-23T22:41:28.835Z,97977.19
2023-03-23T22:43:56.153Z,97976.72
2023-03-23T22:46:24.821Z,97976.63
2023-03-23T22:48:51.958Z,97970.84
2023-03-23T22:51:20.353Z,97967.91
2023-03-23T22:53:48.187Z,97973.56
2023-03-23T22:56:16.549Z,97974.13
2023-03-23T22:58:44.279Z,97973.00
2023-03-23T23:01:22.942Z,97968.84
2023-03-23T23:03:50.126Z,97970.41
2023-03-23T23:06:18.431Z,97970.56
2023-03-23T23:08:47.160Z,97968.25
2023-03-23T23:11:16.631Z,97970.28
2023-03-23T23:13:44.406Z,97969.84
2023-03-23T23:16:13.620Z,97965.88
2023-03-23T23:18:41.045Z,97961.09
2023-03-23T23:21:14.779Z,97960.47
2023-03-23T23:23:42.146Z,97957.31
2023-03-23T23:26:10.003Z,97949.50
2023-03-23T23:28:37.174Z,97946.19
2023-03-23T23:31:06.755Z,97944.72
2023-03-23T23:33:33.983Z,97939.75
2023-03-23T23:36:02.110Z,97942.59
2023-03-23T23:38:29.139Z,97933.97
2023-03-23T23:40:56.181Z,97938.47
2023-03-23T23:43:23.270Z,97937.16
2023-03-23T23:45:50.259Z,97932.03
2023-03-23T23:48:17.466Z,97932.03
2023-03-23T23:50:44.682Z,97927.91
2023-03-23T23:53:13.333Z,97928.25
2023-03-23T23:55:40.726Z,97926.94
2023-03-23T23:58:08.135Z,97913.00
